PSMPORTSMOUTH INTL AT PEASE
METARs for airports near PSM, sorted by distance:
N 0 nm 100' KPSM 221955Z 32008G19KT 10SM FEW250 13/M14 A3001
N 13 nm 322' KDAW 221951Z 33009G20KT 10SM CLR 13/M10 A3001
N 19 nm 244' KSFM 221956Z 27015G20KT 10SM CLR 12/M12 A3001
SW 25 nm 147' KLWM 221954Z 31009G17KT 290V360 10SM CLR 12/M09 A3004
W 28 nm 266' KMHT 221953Z 33010G22KT 10SM CLR 13/M13 A3001
S 29 nm 107' KBVY 221953Z 31008G16KT 10SM CLR 12/M10 A3003
W 30 nm 341' KCON 221951Z 33012G22KT 10SM CLR 12/M13 A3002
SW 35 nm 200' KASH 221956Z 35004G18KT 10SM CLR 13/M12 A3003
NW 39 nm 545' KLCI 221956Z 30011G20KT 250V320 10SM CLR 09/M14 A3002
NE 40 nm 75' KPWM 221951Z 31011G18KT 280V340 10SM CLR 12/M11 A3000
SW 41 nm 132' KBED 221951Z 25004G14KT 10SM CLR 13/M10 A3001
S 43 nm 19' KBOS 221954Z VRB06KT 10SM FEW065 FEW250 13/M09 A3002
SW 51 nm 344' KFIT 221952Z 29011G17KT 10SM CLR 13/M11 A3003
W 54 nm 1039' KAFN 221952Z 29007KT 10SM CLR 11/M13 A3002
N 55 nm 454' KIZG 221954Z 30007G18KT 10SM CLR 10/M14 A3000
S 55 nm 49' KOWD 221953Z 32007KT 290V350 10SM CLR 14/M12 A3003
S 59 nm 8' KGHG 221955Z 05011KT 10SM CLR 11/M06 A3003
N 62 nm 287' KLEW 221956Z 29011G15KT 10SM CLR 10/M13 A2999
W 64 nm 488' KEEN 221956Z 01009KT 330V050 10SM CLR 12/M11 A3002
SE 66 nm 7' KPVC 221956Z 05006KT 10SM CLR 10/M04 A3005
SW 67 nm 1009' KORH 221954Z 34006KT 10SM CLR 12/M13 A3001
S 70 nm 148' KPYM 221952Z 04007KT 10SM CLR 13/M07 A3002
SW 71 nm 555' KORE 221952Z 10SM CLR 13/M12 A3002
NE 71 nm 70' KIWI 221953Z 29006KT 10SM CLR 11/M12 A3000
NW 72 nm 603' KLEB 221953Z 35010G19KT 10SM CLR 12/M11 A3002
S 72 nm 41' KTAN 221952Z 32007KT 280V350 10SM CLR 16/M10 A3002
SW 75 nm 440' KSFZ 221956Z 29004KT 10SM CLR 14/M09 A3002
W 75 nm 577' KVSF 221954Z 34007G16KT 310V030 10SM CLR 11/M11 A3003
N 83 nm 1072' KHIE 221952Z 29014G21KT 10SM CLR 08/M14 A3001
S 84 nm 79' KEWB 221953Z 25007KT 10SM CLR 14/M09 A3002
S 85 nm 54' KPVD 221951Z VRB05KT 10SM FEW250 14/M06 A3003
S 86 nm 130' KFMH 221945Z 08008G16KT 10SM CLR 11/M08 A3003
NE 86 nm 351' KAUG 221953Z 29011G19KT 10SM CLR 11/M13 A2999
S 87 nm 54' KHYA 221956Z 03009KT 10SM CLR 11/M06 A3002
N 91 nm 1161' KBML 221952Z 29009G20KT 240V330 10SM CLR 07/M15 A2999
SE 91 nm 63' KCQX 221952Z 10SM CLR 12/M08 A3004
SW 92 nm 241' KCEF 221955Z 02010KT 10SM CLR 14/M15 A3001
S 92 nm 18' KOQU 212150Z 30014KT 10SM FEW065 OVC180 11/M06 A2987
S 95 nm 171' KUUU 221953Z 20009G18KT 10SM CLR 11/00 A3004
NE 95 nm 55' KRKD 221956Z 30010G20KT 270V330 10SM CLR 11/M13 A2998
W 96 nm 787' KRUT 221956Z 32007KT 10SM CLR 09/M09 A3004
TAFs for airports near PSM, sorted by distance:
N 0 nm 100' KPSM KPSM 221730Z 2218/2318 30012G20KT P6SM SKC
  FM230000 VRB05KT P6SM SKC
  FM231400 17010G18KT P6SM SKC
W 28 nm 266' KMHT KMHT 221730Z 2218/2318 32011G22KT P6SM SKC
  FM230000 VRB05KT P6SM SKC
  FM231500 19008G15KT P6SM SKC
W 30 nm 341' KCON KCON 221730Z 2218/2318 31014G22KT P6SM SKC
  FM230000 VRB05KT P6SM SKC
  FM231500 19008G15KT P6SM SKC
NE 40 nm 75' KPWM KPWM 221730Z 2218/2318 32011G19KT P6SM SKC
  FM230000 VRB05KT P6SM SKC
  FM231400 18010G18KT P6SM SKC
SW 41 nm 132' KBED TAF
  AMD KBED 221756Z 2218/2318 32008G16KT P6SM SKC
  FM222200 32006KT P6SM SKC
  FM230000 02004KT P6SM SKC
  FM230500 00000KT P6SM SKC
  FM231200 20003KT P6SM SKC
  FM231400 19007KT P6SM SKC
S 43 nm 19' KBOS TAF KBOS 221720Z 2218/2324 33011G20KT P6SM FEW250
  FM222100 01007KT P6SM SKC
  FM222200 06006KT P6SM SKC
  FM230000 12005KT P6SM SKC
  FM230600 19005KT P6SM FEW250
  FM231700 17012KT P6SM FEW250
SW 67 nm 1009' KORH TAF KORH 221720Z 2218/2318 33008G16KT P6SM SKC
  FM222200 31007KT P6SM SKC
  FM230200 34003KT P6SM SKC
  FM230600 24007KT P6SM SKC
  FM231600 20008KT P6SM SKC
NW 72 nm 603' KLEB KLEB 221730Z 2218/2318 32009G18KT P6SM SKC
  FM230000 VRB04KT P6SM SKC
  FM231500 19008G15KT P6SM SKC
N 83 nm 1072' KHIE KHIE 221730Z 2218/2318 34008G18KT P6SM SKC
  FM222300 VRB04KT P6SM SKC
  FM231500 20009G18KT P6SM SKC
S 85 nm 54' KPVD TAF KPVD 221720Z 2218/2318 31008G16KT P6SM FEW250
  FM222200 31005KT P6SM SKC
  FM230000 18004KT P6SM SKC
  FM230600 00000KT P6SM SKC
  FM231100 20003KT P6SM FEW250
  FM231400 18008KT P6SM FEW250
S 86 nm 130' KFMH TAF KFMH 221720Z 2218/2318 05013G20KT P6SM SKC
  FM222000 03006KT P6SM SKC
  FM222200 15005KT P6SM SKC
  FM230500 20004KT P6SM SKC
  FM231400 19007KT P6SM SKC
NE 86 nm 351' KAUG KAUG 221730Z 2218/2318 31012G21KT P6SM SKC
  FM230000 VRB05KT P6SM SKC
  FM231500 18010G20KT P6SM SKC
S 87 nm 54' KHYA TAF KHYA 221720Z 2218/2318 01015G25KT P6SM SKC
  FM222000 02008KT P6SM SKC
  FM222200 10003KT P6SM SKC
  FM230100 17006KT P6SM SKC
  FM230700 00000KT P6SM SKC
  FM231500 18007KT P6SM SKC
SW 92 nm 241' KCEF TAF KCEF 220014Z 2200/2306 30009KT 9999 SCT060 BKN250 510103 QNH2988INS WND VRB06KT AFT 2205
  BECMG 2211/2212 31012KT 9999 SCT040 SCT250 QNH3001INS
  TEMPO 2215/2223 32012G18KT
  BECMG 2223/2224 30009KT 9999 FEW250 QNH3010INS WND VRB06KT AFT 2302 TX14/2221Z TN01/2210Z LAST NO
  AMDS AFT 2201 NEXT 2212
NE 95 nm 55' KRKD KRKD 221730Z 2218/2318 29011G18KT P6SM SKC
  FM222100 25007KT P6SM SKC
  FM231400 18012G22KT P6SM SKC
W 96 nm 787' KRUT TAF KRUT 221720Z 2218/2318 31008KT P6SM SKC
  FM230000 VRB03KT P6SM SKC
  FM231200 19008KT P6SM SKC
  FM231400 21008G20KT P6SM SKC

Shortcut to this page: http://wxbay.com.

Data may contain errors.